sensor_id;sensor_type;location;lat;lon;timestamp;pressure;altitude;pressure_sealevel;temperature;humidity
15050;BME280;7622;42.724;23.250;2022-09-09T00:00:19;94922.84;;;19.43;100.00
15050;BME280;7622;42.724;23.250;2022-09-09T00:02:54;94922.25;;;19.19;100.00
15050;BME280;7622;42.724;23.250;2022-09-09T00:05:31;94917.75;;;19.13;100.00
15050;BME280;7622;42.724;23.250;2022-09-09T00:08:00;94912.78;;;19.04;100.00
15050;BME280;7622;42.724;23.250;2022-09-09T00:10:31;94912.72;;;18.97;100.00
15050;BME280;7622;42.724;23.250;2022-09-09T00:13:05;94913.19;;;19.01;100.00
15050;BME280;7622;42.724;23.250;2022-09-09T00:15:39;94914.53;;;18.97;100.00
15050;BME280;7622;42.724;23.250;2022-09-09T00:18:15;94877.91;;;18.74;100.00
15050;BME280;7622;42.724;23.250;2022-09-09T00:20:48;94901.06;;;19.06;100.00
15050;BME280;7622;42.724;23.250;2022-09-09T00:23:22;94893.41;;;19.11;100.00
15050;BME280;7622;42.724;23.250;2022-09-09T00:25:56;94885.50;;;18.90;100.00
15050;BME280;7622;42.724;23.250;2022-09-09T00:28:27;94885.91;;;18.87;100.00
15050;BME280;7622;42.724;23.250;2022-09-09T00:31:08;94874.44;;;18.95;100.00
15050;BME280;7622;42.724;23.250;2022-09-09T00:33:39;94862.19;;;19.08;100.00
15050;BME280;7622;42.724;23.250;2022-09-09T00:36:11;94864.56;;;19.03;100.00
15050;BME280;7622;42.724;23.250;2022-09-09T00:38:42;94865.31;;;18.97;100.00
15050;BME280;7622;42.724;23.250;2022-09-09T00:41:14;94873.94;;;18.84;100.00
15050;BME280;7622;42.724;23.250;2022-09-09T00:43:53;94883.16;;;18.74;100.00
15050;BME280;7622;42.724;23.250;2022-09-09T00:46:53;94887.03;;;18.78;100.00
15050;BME280;7622;42.724;23.250;2022-09-09T00:49:32;94886.63;;;18.81;100.00
15050;BME280;7622;42.724;23.250;2022-09-09T00:52:12;94888.59;;;18.94;100.00
15050;BME280;7622;42.724;23.250;2022-09-09T00:54:49;94885.50;;;18.90;100.00
15050;BME280;7622;42.724;23.250;2022-09-09T00:57:26;94880.00;;;18.85;100.00
15050;BME280;7622;42.724;23.250;2022-09-09T01:00:14;94869.84;;;18.61;100.00
15050;BME280;7622;42.724;23.250;2022-09-09T01:02:52;94882.88;;;18.69;100.00
15050;BME280;7622;42.724;23.250;2022-09-09T01:05:28;94878.50;;;18.76;100.00
15050;BME280;7622;42.724;23.250;2022-09-09T01:07:58;94889.66;;;18.57;100.00
15050;BME280;7622;42.724;23.250;2022-09-09T01:10:35;94886.44;;;18.61;100.00
15050;BME280;7622;42.724;23.250;2022-09-09T01:13:09;94886.44;;;18.61;100.00
15050;BME280;7622;42.724;23.250;2022-09-09T01:15:41;94889.97;;;18.68;100.00
15050;BME280;7622;42.724;23.250;2022-09-09T01:18:12;94887.16;;;18.55;100.00
15050;BME280;7622;42.724;23.250;2022-09-09T01:20:47;94882.63;;;18.64;100.00
15050;BME280;7622;42.724;23.250;2022-09-09T01:23:37;94873.84;;;18.57;100.00
15050;BME280;7622;42.724;23.250;2022-09-09T01:26:13;94875.97;;;18.68;100.00
15050;BME280;7622;42.724;23.250;2022-09-09T01:28:43;94885.09;;;18.50;100.00
15050;BME280;7622;42.724;23.250;2022-09-09T01:31:15;94885.84;;;18.44;100.00
15050;BME280;7622;42.724;23.250;2022-09-09T01:33:43;94888.66;;;18.43;100.00
15050;BME280;7622;42.724;23.250;2022-09-09T01:36:14;94895.84;;;18.34;100.00
15050;BME280;7622;42.724;23.250;2022-09-09T01:38:47;94893.84;;;18.36;100.00
15050;BME280;7622;42.724;23.250;2022-09-09T01:41:17;94891.84;;;18.38;100.00
15050;BME280;7622;42.724;23.250;2022-09-09T01:43:43;94891.84;;;18.38;100.00
15050;BME280;7622;42.724;23.250;2022-09-09T01:46:11;94889.69;;;18.27;100.00
15050;BME280;7622;42.724;23.250;2022-09-09T01:48:39;94896.06;;;18.18;100.00
15050;BME280;7622;42.724;23.250;2022-09-09T01:51:08;94898.97;;;18.23;100.00
15050;BME280;7622;42.724;23.250;2022-09-09T01:53:36;94895.94;;;18.26;100.00
15050;BME280;7622;42.724;23.250;2022-09-09T01:56:10;94905.63;;;18.04;100.00
15050;BME280;7622;42.724;23.250;2022-09-09T01:58:48;94895.84;;;17.84;100.00
15050;BME280;7622;42.724;23.250;2022-09-09T02:01:27;94869.00;;;17.74;100.00
15050;BME280;7622;42.724;23.250;2022-09-09T02:03:59;94887.97;;;17.84;100.00
15050;BME280;7622;42.724;23.250;2022-09-09T02:06:32;94885.31;;;17.69;100.00
15050;BME280;7622;42.724;23.250;2022-09-09T02:09:03;94889.03;;;17.75;100.00
15050;BME280;7622;42.724;23.250;2022-09-09T02:11:32;94879.34;;;17.75;100.00
15050;BME280;7622;42.724;23.250;2022-09-09T02:14:04;94854.63;;;17.69;100.00
15050;BME280;7622;42.724;23.250;2022-09-09T02:16:36;94880.84;;;17.84;100.00
15050;BME280;7622;42.724;23.250;2022-09-09T02:19:08;94881.50;;;17.71;100.00
15050;BME280;7622;42.724;23.250;2022-09-09T02:21:39;94877.44;;;17.84;100.00
15050;BME280;7622;42.724;23.250;2022-09-09T02:24:08;94881.16;;;17.75;100.00
15050;BME280;7622;42.724;23.250;2022-09-09T02:26:39;94890.66;;;17.61;100.00
15050;BME280;7622;42.724;23.250;2022-09-09T02:29:12;94888.69;;;17.63;100.00
15050;BME280;7622;42.724;23.250;2022-09-09T02:31:41;94887.38;;;17.59;100.00
15050;BME280;7622;42.724;23.250;2022-09-09T02:34:11;94888.53;;;17.56;100.00
15050;BME280;7622;42.724;23.250;2022-09-09T02:36:41;94899.72;;;17.73;100.00
15050;BME280;7622;42.724;23.250;2022-09-09T02:39:10;94908.75;;;17.56;100.00
15050;BME280;7622;42.724;23.250;2022-09-09T02:41:39;94895.31;;;17.51;100.00
15050;BME280;7622;42.724;23.250;2022-09-09T02:44:11;94894.94;;;17.62;100.00
15050;BME280;7622;42.724;23.250;2022-09-09T02:46:52;94901.06;;;17.54;100.00
15050;BME280;7622;42.724;23.250;2022-09-09T02:49:28;94894.72;;;17.63;100.00
15050;BME280;7622;42.724;23.250;2022-09-09T02:52:01;94892.97;;;17.41;100.00
15050;BME280;7622;42.724;23.250;2022-09-09T02:54:31;94894.88;;;17.47;100.00
15050;BME280;7622;42.724;23.250;2022-09-09T02:57:01;94897.94;;;17.51;100.00
15050;BME280;7622;42.724;23.250;2022-09-09T02:59:31;94900.78;;;17.64;100.00
15050;BME280;7622;42.724;23.250;2022-09-09T03:01:58;94899.91;;;17.71;100.00
15050;BME280;7622;42.724;23.250;2022-09-09T03:04:26;94898.72;;;17.74;100.00
15050;BME280;7622;42.724;23.250;2022-09-09T03:06:53;94901.34;;;17.89;100.00
15050;BME280;7622;42.724;23.250;2022-09-09T03:09:19;94888.97;;;17.45;100.00
15050;BME280;7622;42.724;23.250;2022-09-09T03:11:46;94895.25;;;17.59;100.00
15050;BME280;7622;42.724;23.250;2022-09-09T03:14:14;94900.31;;;17.60;100.00
15050;BME280;7622;42.724;23.250;2022-09-09T03:16:43;94892.22;;;17.70;100.00
15050;BME280;7622;42.724;23.250;2022-09-09T03:19:10;94897.22;;;17.57;100.00
15050;BME280;7622;42.724;23.250;2022-09-09T03:21:36;94886.34;;;17.45;100.00
15050;BME280;7622;42.724;23.250;2022-09-09T03:24:04;94900.06;;;17.55;100.00
15050;BME280;7622;42.724;23.250;2022-09-09T03:26:32;94882.66;;;17.54;100.00
15050;BME280;7622;42.724;23.250;2022-09-09T03:28:58;94894.16;;;17.53;100.00
15050;BME280;7622;42.724;23.250;2022-09-09T03:31:26;94886.84;;;17.49;100.00
15050;BME280;7622;42.724;23.250;2022-09-09T03:33:57;94870.44;;;17.47;100.00
15050;BME280;7622;42.724;23.250;2022-09-09T03:36:24;94883.47;;;17.55;100.00
15050;BME280;7622;42.724;23.250;2022-09-09T03:38:53;94887.19;;;17.60;100.00
15050;BME280;7622;42.724;23.250;2022-09-09T03:41:20;94874.84;;;17.46;100.00
15050;BME280;7622;42.724;23.250;2022-09-09T03:43:49;94885.91;;;17.56;100.00
15050;BME280;7622;42.724;23.250;2022-09-09T03:46:16;94901.81;;;17.63;100.00
15050;BME280;7622;42.724;23.250;2022-09-09T03:48:42;94895.38;;;17.65;100.00
15050;BME280;7622;42.724;23.250;2022-09-09T03:51:11;94896.06;;;17.59;100.00
15050;BME280;7622;42.724;23.250;2022-09-09T03:53:37;94910.38;;;17.42;100.00
15050;BME280;7622;42.724;23.250;2022-09-09T03:56:06;94831.44;;;17.06;100.00
15050;BME280;7622;42.724;23.250;2022-09-09T03:58:34;94900.63;;;17.65;100.00
15050;BME280;7622;42.724;23.250;2022-09-09T04:01:02;94897.00;;;17.66;100.00
15050;BME280;7622;42.724;23.250;2022-09-09T04:03:29;94874.41;;;17.57;100.00
15050;BME280;7622;42.724;23.250;2022-09-09T04:05:58;94910.41;;;17.71;100.00
15050;BME280;7622;42.724;23.250;2022-09-09T04:08:27;94900.81;;;17.79;100.00
15050;BME280;7622;42.724;23.250;2022-09-09T04:10:54;94892.91;;;17.79;100.00
15050;BME280;7622;42.724;23.250;2022-09-09T04:13:23;94889.94;;;17.82;100.00
15050;BME280;7622;42.724;23.250;2022-09-09T04:15:51;94896.34;;;17.94;100.00
15050;BME280;7622;42.724;23.250;2022-09-09T04:18:19;94902.44;;;18.09;100.00
15050;BME280;7622;42.724;23.250;2022-09-09T04:20:46;94902.31;;;18.32;100.00
15050;BME280;7622;42.724;23.250;2022-09-09T04:23:14;94893.63;;;18.53;100.00
15050;BME280;7622;42.724;23.250;2022-09-09T04:25:45;94907.41;;;18.55;100.00
15050;BME280;7622;42.724;23.250;2022-09-09T04:28:12;94908.84;;;18.72;100.00
15050;BME280;7622;42.724;23.250;2022-09-09T04:30:39;94909.44;;;18.95;100.00
15050;BME280;7622;42.724;23.250;2022-09-09T04:33:06;94907.34;;;19.05;100.00
15050;BME280;7622;42.724;23.250;2022-09-09T04:35:33;94908.06;;;19.20;100.00
15050;BME280;7622;42.724;23.250;2022-09-09T04:38:00;94905.94;;;19.09;100.00
15050;BME280;7622;42.724;23.250;2022-09-09T04:40:28;94907.06;;;18.58;100.00
15050;BME280;7622;42.724;23.250;2022-09-09T04:42:59;94895.44;;;18.52;100.00
15050;BME280;7622;42.724;23.250;2022-09-09T04:45:26;94904.88;;;18.46;100.00
15050;BME280;7622;42.724;23.250;2022-09-09T04:47:53;94892.97;;;18.29;100.00
15050;BME280;7622;42.724;23.250;2022-09-09T04:50:20;94892.66;;;18.75;100.00
15050;BME280;7622;42.724;23.250;2022-09-09T04:52:47;94886.00;;;19.21;100.00
15050;BME280;7622;42.724;23.250;2022-09-09T04:55:14;94908.78;;;19.57;100.00
15050;BME280;7622;42.724;23.250;2022-09-09T04:57:41;94902.34;;;20.00;100.00
15050;BME280;7622;42.724;23.250;2022-09-09T05:00:11;94907.06;;;20.46;100.00
15050;BME280;7622;42.724;23.250;2022-09-09T05:02:38;94871.72;;;20.47;100.00
15050;BME280;7622;42.724;23.250;2022-09-09T05:05:06;94889.69;;;20.98;100.00
15050;BME280;7622;42.724;23.250;2022-09-09T05:07:33;94878.16;;;21.38;100.00
15050;BME280;7622;42.724;23.250;2022-09-09T05:09:59;94883.63;;;21.70;100.00
15050;BME280;7622;42.724;23.250;2022-09-09T05:12:28;94898.19;;;22.18;100.00
15050;BME280;7622;42.724;23.250;2022-09-09T05:14:55;94895.97;;;21.95;100.00
15050;BME280;7622;42.724;23.250;2022-09-09T05:17:23;94894.78;;;21.98;100.00
15050;BME280;7622;42.724;23.250;2022-09-09T05:19:50;94895.56;;;21.85;100.00
15050;BME280;7622;42.724;23.250;2022-09-09T05:22:18;94882.91;;;22.14;100.00
15050;BME280;7622;42.724;23.250;2022-09-09T05:24:47;94887.31;;;22.39;100.00
15050;BME280;7622;42.724;23.250;2022-09-09T05:27:17;94891.47;;;22.09;100.00
15050;BME280;7622;42.724;23.250;2022-09-09T05:29:46;94899.53;;;22.34;100.00
15050;BME280;7622;42.724;23.250;2022-09-09T05:32:13;94896.22;;;22.45;100.00
15050;BME280;7622;42.724;23.250;2022-09-09T05:34:42;94899.13;;;22.37;100.00
15050;BME280;7622;42.724;23.250;2022-09-09T05:37:09;94893.44;;;22.78;100.00
15050;BME280;7622;42.724;23.250;2022-09-09T05:39:35;94888.22;;;22.96;100.00
15050;BME280;7622;42.724;23.250;2022-09-09T05:42:03;94895.25;;;23.40;100.00
15050;BME280;7622;42.724;23.250;2022-09-09T05:44:30;94902.47;;;23.58;100.00
15050;BME280;7622;42.724;23.250;2022-09-09T05:46:57;94906.03;;;23.70;100.00
15050;BME280;7622;42.724;23.250;2022-09-09T05:49:24;94891.13;;;23.44;100.00
15050;BME280;7622;42.724;23.250;2022-09-09T05:51:53;94899.59;;;23.60;100.00
15050;BME280;7622;42.724;23.250;2022-09-09T05:54:19;94906.19;;;24.37;100.00
15050;BME280;7622;42.724;23.250;2022-09-09T05:56:46;94909.91;;;24.65;100.00
15050;BME280;7622;42.724;23.250;2022-09-09T05:59:16;94917.13;;;24.77;100.00
15050;BME280;7622;42.724;23.250;2022-09-09T06:01:43;94918.47;;;25.16;100.00
15050;BME280;7622;42.724;23.250;2022-09-09T06:04:10;94915.81;;;25.80;97.92
15050;BME280;7622;42.724;23.250;2022-09-09T06:06:38;94879.34;;;25.81;96.70
15050;BME280;7622;42.724;23.250;2022-09-09T06:09:08;94909.41;;;26.16;95.67
15050;BME280;7622;42.724;23.250;2022-09-09T06:11:37;94906.09;;;25.63;100.00
15050;BME280;7622;42.724;23.250;2022-09-09T06:14:04;94890.53;;;25.36;100.00
15050;BME280;7622;42.724;23.250;2022-09-09T06:16:32;94912.72;;;24.70;100.00
15050;BME280;7622;42.724;23.250;2022-09-09T06:19:00;94920.00;;;24.27;100.00
15050;BME280;7622;42.724;23.250;2022-09-09T06:21:29;94901.81;;;23.63;100.00
15050;BME280;7622;42.724;23.250;2022-09-09T06:23:56;94910.78;;;23.86;100.00
15050;BME280;7622;42.724;23.250;2022-09-09T06:26:25;94923.38;;;24.52;100.00
15050;BME280;7622;42.724;23.250;2022-09-09T06:28:54;94923.47;;;24.94;100.00
15050;BME280;7622;42.724;23.250;2022-09-09T06:31:24;94912.38;;;24.97;100.00
15050;BME280;7622;42.724;23.250;2022-09-09T06:33:52;94905.16;;;25.16;100.00
15050;BME280;7622;42.724;23.250;2022-09-09T06:36:22;94906.50;;;25.36;100.00
15050;BME280;7622;42.724;23.250;2022-09-09T06:38:49;94898.34;;;25.31;100.00
15050;BME280;7622;42.724;23.250;2022-09-09T06:41:17;94901.72;;;25.27;100.00
15050;BME280;7622;42.724;23.250;2022-09-09T06:43:46;94890.69;;;25.88;97.87
15050;BME280;7622;42.724;23.250;2022-09-09T06:46:14;94898.09;;;25.98;97.81
15050;BME280;7622;42.724;23.250;2022-09-09T06:48:43;94909.78;;;26.32;95.93
15050;BME280;7622;42.724;23.250;2022-09-09T06:51:12;94904.47;;;26.32;93.10
15050;BME280;7622;42.724;23.250;2022-09-09T06:53:41;94917.16;;;26.53;91.43
15050;BME280;7622;42.724;23.250;2022-09-09T06:56:18;94915.78;;;26.39;91.59
15050;BME280;7622;42.724;23.250;2022-09-09T06:58:47;94921.84;;;26.34;90.66
15050;BME280;7622;42.724;23.250;2022-09-09T07:01:15;94921.94;;;26.79;88.51
15050;BME280;7622;42.724;23.250;2022-09-09T07:03:45;94915.66;;;26.45;88.55
15050;BME280;7622;42.724;23.250;2022-09-09T07:06:14;94917.38;;;27.03;85.33
15050;BME280;7622;42.724;23.250;2022-09-09T07:08:42;94920.00;;;27.48;81.93
15050;BME280;7622;42.724;23.250;2022-09-09T07:11:09;94910.03;;;27.27;82.10
15050;BME280;7622;42.724;23.250;2022-09-09T07:13:36;94903.81;;;26.53;87.90
15050;BME280;7622;42.724;23.250;2022-09-09T07:16:06;94908.13;;;26.42;88.23
15050;BME280;7622;42.724;23.250;2022-09-09T07:18:33;94910.25;;;26.28;90.03
15050;BME280;7622;42.724;23.250;2022-09-09T07:21:01;94886.25;;;27.09;85.41
15050;BME280;7622;42.724;23.250;2022-09-09T07:23:28;94900.63;;;27.53;81.39
15050;BME280;7622;42.724;23.250;2022-09-09T07:25:55;94902.38;;;27.80;78.72
15050;BME280;7622;42.724;23.250;2022-09-09T07:28:22;94897.19;;;28.07;77.91
15050;BME280;7622;42.724;23.250;2022-09-09T07:30:53;94902.53;;;28.07;77.45
15050;BME280;7622;42.724;23.250;2022-09-09T07:33:21;94903.31;;;28.08;77.24
15050;BME280;7622;42.724;23.250;2022-09-09T07:35:49;94896.94;;;28.47;75.35
15050;BME280;7622;42.724;23.250;2022-09-09T07:38:16;94892.59;;;28.41;74.04
15050;BME280;7622;42.724;23.250;2022-09-09T07:40:44;94907.50;;;28.37;71.85
15050;BME280;7622;42.724;23.250;2022-09-09T07:43:11;94904.94;;;28.09;72.88
15050;BME280;7622;42.724;23.250;2022-09-09T07:45:38;94905.16;;;27.86;75.62
15050;BME280;7622;42.724;23.250;2022-09-09T07:48:05;94904.97;;;28.47;71.23
15050;BME280;7622;42.724;23.250;2022-09-09T07:50:34;94910.44;;;28.79;69.74
15050;BME280;7622;42.724;23.250;2022-09-09T07:53:00;94897.44;;;28.88;69.45
15050;BME280;7622;42.724;23.250;2022-09-09T07:55:28;94913.22;;;29.11;67.79
15050;BME280;7622;42.724;23.250;2022-09-09T07:57:55;94919.06;;;29.08;66.70
15050;BME280;7622;42.724;23.250;2022-09-09T08:00:22;94909.75;;;28.89;67.41
15050;BME280;7622;42.724;23.250;2022-09-09T08:02:49;94908.00;;;28.78;68.35
15050;BME280;7622;42.724;23.250;2022-09-09T08:05:17;94908.25;;;28.54;70.70
15050;BME280;7622;42.724;23.250;2022-09-09T08:07:45;94903.34;;;28.46;69.99
15050;BME280;7622;42.724;23.250;2022-09-09T08:10:12;94903.19;;;28.36;70.22
15050;BME280;7622;42.724;23.250;2022-09-09T08:12:40;94909.97;;;28.05;72.60
15050;BME280;7622;42.724;23.250;2022-09-09T08:15:07;94903.34;;;28.46;69.61
15050;BME280;7622;42.724;23.250;2022-09-09T08:17:34;94901.59;;;28.57;68.29
15050;BME280;7622;42.724;23.250;2022-09-09T08:20:03;94910.91;;;28.33;70.47
15050;BME280;7622;42.724;23.250;2022-09-09T08:22:32;94907.13;;;28.72;67.82
15050;BME280;7622;42.724;23.250;2022-09-09T08:25:00;94900.34;;;28.65;68.50
15050;BME280;7622;42.724;23.250;2022-09-09T08:27:27;94902.91;;;28.33;71.22
15050;BME280;7622;42.724;23.250;2022-09-09T08:29:54;94896.88;;;28.86;69.10
15050;BME280;7622;42.724;23.250;2022-09-09T08:32:21;94890.94;;;28.84;68.71
15050;BME280;7622;42.724;23.250;2022-09-09T08:34:48;94887.53;;;28.45;72.15
15050;BME280;7622;42.724;23.250;2022-09-09T08:37:15;94889.09;;;28.19;74.42
15050;BME280;7622;42.724;23.250;2022-09-09T08:39:41;94893.38;;;28.03;74.73
15050;BME280;7622;42.724;23.250;2022-09-09T08:42:37;94886.09;;;28.15;74.67
15050;BME280;7622;42.724;23.250;2022-09-09T08:45:21;94888.28;;;28.62;71.87
15050;BME280;7622;42.724;23.250;2022-09-09T08:48:04;94879.91;;;28.75;70.70
15050;BME280;7622;42.724;23.250;2022-09-09T08:50:34;94890.56;;;29.24;68.62
15050;BME280;7622;42.724;23.250;2022-09-09T08:53:05;94885.09;;;28.65;72.33
15050;BME280;7622;42.724;23.250;2022-09-09T08:55:41;94887.25;;;29.39;69.41
15050;BME280;7622;42.724;23.250;2022-09-09T08:58:14;94880.34;;;29.48;67.07
15050;BME280;7622;42.724;23.250;2022-09-09T09:00:54;94879.06;;;29.23;68.39
15050;BME280;7622;42.724;23.250;2022-09-09T09:03:30;94874.13;;;28.83;69.94
15050;BME280;7622;42.724;23.250;2022-09-09T09:06:05;94887.94;;;29.56;65.93
15050;BME280;7622;42.724;23.250;2022-09-09T09:08:39;94887.25;;;29.70;64.51
15050;BME280;7622;42.724;23.250;2022-09-09T09:11:09;94881.06;;;29.65;63.86
15050;BME280;7622;42.724;23.250;2022-09-09T09:13:44;94866.00;;;29.59;63.83
15050;BME280;7622;42.724;23.250;2022-09-09T09:16:19;94884.44;;;29.87;63.24
15050;BME280;7622;42.724;23.250;2022-09-09T09:18:48;94867.72;;;30.12;62.41
15050;BME280;7622;42.724;23.250;2022-09-09T09:21:21;94881.56;;;30.46;61.03
15050;BME280;7622;42.724;23.250;2022-09-09T09:23:55;94874.88;;;30.48;60.89
15050;BME280;7622;42.724;23.250;2022-09-09T09:26:25;94870.91;;;30.56;60.37
15050;BME280;7622;42.724;23.250;2022-09-09T09:28:58;94874.19;;;30.78;60.00
15050;BME280;7622;42.724;23.250;2022-09-09T09:31:26;94885.63;;;30.53;61.20
15050;BME280;7622;42.724;23.250;2022-09-09T09:33:54;94868.28;;;30.14;62.99
15050;BME280;7622;42.724;23.250;2022-09-09T09:36:24;94862.19;;;29.87;64.40
15050;BME280;7622;42.724;23.250;2022-09-09T09:38:54;94866.06;;;30.01;63.56
15050;BME280;7622;42.724;23.250;2022-09-09T09:41:32;94862.81;;;29.67;66.34
15050;BME280;7622;42.724;23.250;2022-09-09T09:44:02;94857.41;;;28.98;70.62
15050;BME280;7622;42.724;23.250;2022-09-09T09:46:30;94862.47;;;28.51;73.46
15050;BME280;7622;42.724;23.250;2022-09-09T09:48:57;94854.72;;;28.49;73.93
15050;BME280;7622;42.724;23.250;2022-09-09T09:51:25;94851.41;;;28.42;74.44
15050;BME280;7622;42.724;23.250;2022-09-09T09:53:53;94858.91;;;28.40;75.97
15050;BME280;7622;42.724;23.250;2022-09-09T09:56:27;94854.03;;;28.37;76.30
15050;BME280;7622;42.724;23.250;2022-09-09T09:58:55;94851.78;;;28.29;76.65
15050;BME280;7622;42.724;23.250;2022-09-09T10:01:25;94849.69;;;28.31;77.61
15050;BME280;7622;42.724;23.250;2022-09-09T10:03:54;94852.31;;;28.26;76.59
15050;BME280;7622;42.724;23.250;2022-09-09T10:06:30;94854.25;;;28.14;77.35
15050;BME280;7622;42.724;23.250;2022-09-09T10:08:57;94866.63;;;27.81;80.59
15050;BME280;7622;42.724;23.250;2022-09-09T10:11:40;94864.13;;;27.75;83.15
15050;BME280;7622;42.724;23.250;2022-09-09T10:14:16;94869.22;;;27.76;81.75
15050;BME280;7622;42.724;23.250;2022-09-09T10:16:59;94862.78;;;27.72;82.71
15050;BME280;7622;42.724;23.250;2022-09-09T10:19:32;94871.22;;;27.36;86.51
15050;BME280;7622;42.724;23.250;2022-09-09T10:22:07;94868.66;;;27.24;86.57
15050;BME280;7622;42.724;23.250;2022-09-09T10:24:48;94869.53;;;27.30;86.39
15050;BME280;7622;42.724;23.250;2022-09-09T10:27:26;94869.78;;;27.28;86.43
15050;BME280;7622;42.724;23.250;2022-09-09T10:30:06;94869.34;;;27.20;87.38
15050;BME280;7622;42.724;23.250;2022-09-09T10:32:40;94867.00;;;27.07;90.52
15050;BME280;7622;42.724;23.250;2022-09-09T10:35:19;94870.91;;;26.87;93.39
15050;BME280;7622;42.724;23.250;2022-09-09T10:38:17;94869.50;;;27.13;91.37
15050;BME280;7622;42.724;23.250;2022-09-09T10:46:57;94872.97;;;26.85;93.84
15050;BME280;7622;42.724;23.250;2022-09-09T10:49:39;94879.50;;;26.89;94.79
15050;BME280;7622;42.724;23.250;2022-09-09T10:52:14;94880.31;;;26.78;96.81
15050;BME280;7622;42.724;23.250;2022-09-09T10:54:55;94864.53;;;26.60;98.39
15050;BME280;7622;42.724;23.250;2022-09-09T10:57:28;94874.28;;;26.83;97.70
15050;BME280;7622;42.724;23.250;2022-09-09T10:59:59;94869.28;;;26.58;100.00
15050;BME280;7622;42.724;23.250;2022-09-09T11:02:31;94864.41;;;26.83;98.73
15050;BME280;7622;42.724;23.250;2022-09-09T11:05:02;94863.59;;;26.94;98.42
15050;BME280;7622;42.724;23.250;2022-09-09T11:07:37;94871.41;;;26.44;100.00
15050;BME280;7622;42.724;23.250;2022-09-09T11:10:16;94860.97;;;26.54;100.00
15050;BME280;7622;42.724;23.250;2022-09-09T11:12:45;94861.00;;;26.71;100.00
15050;BME280;7622;42.724;23.250;2022-09-09T11:15:17;94857.09;;;26.90;98.41
15050;BME280;7622;42.724;23.250;2022-09-09T11:17:49;94857.38;;;26.77;98.10
15050;BME280;7622;42.724;23.250;2022-09-09T11:20:18;94842.84;;;26.96;98.00
15050;BME280;7622;42.724;23.250;2022-09-09T11:22:48;94842.03;;;26.96;98.83
15050;BME280;7622;42.724;23.250;2022-09-09T11:25:18;94852.78;;;27.18;96.73
15050;BME280;7622;42.724;23.250;2022-09-09T11:28:00;94847.69;;;27.33;96.26
15050;BME280;7622;42.724;23.250;2022-09-09T11:30:38;94828.63;;;27.24;97.34
15050;BME280;7622;42.724;23.250;2022-09-09T11:36:33;94812.78;;;27.34;98.26
15050;BME280;7622;42.724;23.250;2022-09-09T11:39:17;94800.00;;;27.20;98.12
15050;BME280;7622;42.724;23.250;2022-09-09T11:41:50;94803.75;;;27.52;96.77
15050;BME280;7622;42.724;23.250;2022-09-09T11:44:19;94789.47;;;27.47;97.23
15050;BME280;7622;42.724;23.250;2022-09-09T11:46:51;94780.63;;;27.46;98.04
15050;BME280;7622;42.724;23.250;2022-09-09T11:49:27;94777.16;;;27.62;97.41
15050;BME280;7622;42.724;23.250;2022-09-09T11:51:55;94784.66;;;27.82;96.81
15050;BME280;7622;42.724;23.250;2022-09-09T11:54:29;94777.25;;;27.89;95.78
15050;BME280;7622;42.724;23.250;2022-09-09T11:56:56;94794.66;;;28.35;92.32
15050;BME280;7622;42.724;23.250;2022-09-09T11:59:25;94787.94;;;28.54;92.31
15050;BME280;7622;42.724;23.250;2022-09-09T12:01:55;94787.72;;;28.83;90.28
15050;BME280;7622;42.724;23.250;2022-09-09T12:04:29;94785.38;;;28.65;92.54
15050;BME280;7622;42.724;23.250;2022-09-09T12:07:00;94779.19;;;28.64;91.19
15050;BME280;7622;42.724;23.250;2022-09-09T12:09:36;94770.84;;;28.55;93.42
15050;BME280;7622;42.724;23.250;2022-09-09T12:12:22;94771.53;;;28.19;95.09
15050;BME280;7622;42.724;23.250;2022-09-09T12:15:00;94772.44;;;28.30;94.72
15050;BME280;7622;42.724;23.250;2022-09-09T12:17:29;94749.66;;;28.49;93.74
15050;BME280;7622;42.724;23.250;2022-09-09T12:20:02;94767.38;;;28.55;94.09
15050;BME280;7622;42.724;23.250;2022-09-09T12:22:39;94764.97;;;28.58;94.29
15050;BME280;7622;42.724;23.250;2022-09-09T12:25:19;94761.66;;;28.73;93.59
15050;BME280;7622;42.724;23.250;2022-09-09T12:27:59;94761.47;;;28.80;93.44
15050;BME280;7622;42.724;23.250;2022-09-09T12:30:31;94748.06;;;28.75;94.39
15050;BME280;7622;42.724;23.250;2022-09-09T12:33:02;94748.03;;;28.21;99.23
15050;BME280;7622;42.724;23.250;2022-09-09T12:35:29;94758.41;;;28.44;98.34
15050;BME280;7622;42.724;23.250;2022-09-09T12:37:59;94740.56;;;28.50;98.31
15050;BME280;7622;42.724;23.250;2022-09-09T12:40:28;94741.81;;;28.42;100.00
15050;BME280;7622;42.724;23.250;2022-09-09T12:42:55;94741.13;;;28.52;100.00
15050;BME280;7622;42.724;23.250;2022-09-09T12:45:23;94725.28;;;28.18;100.00
15050;BME280;7622;42.724;23.250;2022-09-09T12:47:53;94727.28;;;28.28;100.00
15050;BME280;7622;42.724;23.250;2022-09-09T12:50:24;94733.34;;;28.50;100.00
15050;BME280;7622;42.724;23.250;2022-09-09T12:52:54;94741.53;;;28.66;99.42
15050;BME280;7622;42.724;23.250;2022-09-09T12:55:27;94725.34;;;28.50;97.01
15050;BME280;7622;42.724;23.250;2022-09-09T12:57:55;94735.16;;;28.18;99.87
15050;BME280;7622;42.724;23.250;2022-09-09T13:00:24;94725.28;;;27.97;100.00
15050;BME280;7622;42.724;23.250;2022-09-09T13:02:53;94706.41;;;27.81;100.00
15050;BME280;7622;42.724;23.250;2022-09-09T13:05:22;94737.00;;;27.74;100.00
15050;BME280;7622;42.724;23.250;2022-09-09T13:07:50;94737.69;;;27.48;100.00
15050;BME280;7622;42.724;23.250;2022-09-09T13:10:24;94726.38;;;28.01;99.38
15050;BME280;7622;42.724;23.250;2022-09-09T13:12:53;94723.03;;;28.32;97.93
15050;BME280;7622;42.724;23.250;2022-09-09T13:15:22;94725.88;;;28.04;98.01
15050;BME280;7622;42.724;23.250;2022-09-09T13:17:57;94720.81;;;27.59;99.76
15050;BME280;7622;42.724;23.250;2022-09-09T13:20:26;94713.09;;;27.62;100.00
15050;BME280;7622;42.724;23.250;2022-09-09T13:22:55;94708.00;;;27.82;99.93